Time;durP1;ratioP1;P1;durP2;ratioP2;P2;SDS_P1;SDS_P2;PMS_P1;PMS_P2;Temp;Humidity;BMP_temperature;BMP_pressure;BME280_temperature;BME280_humidity;BME280_pressure;Samples;Min_cycle;Max_cycle;Signal;HPM_P1;HPM_P2
2024/01/17 00:02:22;;;;;;;61.53;33.67;;;;;;;28.82;72.21;101048.56;5042124;28;70597;-38
2024/01/17 00:04:54;;;;;;;64.82;34.88;;;;;;;28.84;72.20;101046.50;5042188;28;66608;-38
2024/01/17 00:07:24;;;;;;;72.88;34.28;;;;;;;28.77;72.84;101028.59;5026601;28;70355;-38
2024/01/17 00:09:55;;;;;;;64.25;33.50;;;;;;;28.93;72.64;101058.78;5042215;28;66207;-38
2024/01/17 00:12:25;;;;;;;62.88;33.28;;;;;;;28.94;73.25;101049.63;5049073;28;70417;-37
2024/01/17 00:14:56;;;;;;;65.97;32.10;;;;;;;28.98;72.74;101051.94;5068355;28;65973;-38
2024/01/17 00:17:28;;;;;;;66.45;33.90;;;;;;;29.02;73.01;101062.13;5048410;28;69950;-37
2024/01/17 00:19:59;;;;;;;71.68;33.85;;;;;;;29.02;74.23;101061.28;5046245;28;66860;-38
2024/01/17 00:22:30;;;;;;;70.47;34.83;;;;;;;29.10;73.75;101066.53;5071744;28;70784;-37
2024/01/17 00:25:03;;;;;;;74.38;36.00;;;;;;;29.14;74.61;101078.59;5046632;28;66317;-39
2024/01/17 00:27:35;;;;;;;73.25;36.67;;;;;;;29.15;74.40;101074.88;5056163;28;70876;-38
2024/01/17 00:30:07;;;;;;;63.80;37.72;;;;;;;29.14;74.97;101075.91;5047515;28;66417;-39
2024/01/17 00:32:37;;;;;;;;;;;;;;;29.09;75.31;101098.13;5046043;28;70390;-38
2024/01/17 00:35:09;;;;;;;76.95;39.97;;;;;;;29.24;73.90;101097.97;5048536;28;66794;-38
2024/01/17 00:37:39;;;;;;;;;;;;;;;29.14;75.47;101109.16;5055671;28;70073;-39
2024/01/17 00:40:10;;;;;;;74.45;38.40;;;;;;;29.13;75.16;101090.44;5047809;28;66163;-39
2024/01/17 00:42:41;;;;;;;70.53;37.95;;;;;;;29.29;73.91;101122.50;5046334;28;70123;-38
2024/01/17 00:45:13;;;;;;;69.70;36.40;;;;;;;29.30;74.46;101126.84;5059089;28;66528;-39
2024/01/17 00:47:45;;;;;;;76.68;36.67;;;;;;;29.34;73.83;101130.84;5041488;28;70493;-39
2024/01/17 00:50:18;;;;;;;62.90;33.80;;;;;;;29.37;73.28;101138.53;5035668;28;66406;-39
2024/01/17 00:52:48;;;;;;;63.25;32.90;;;;;;;29.39;73.80;101147.28;5034461;28;69902;-39
2024/01/17 00:55:19;;;;;;;54.72;32.00;;;;;;;29.36;69.38;101138.72;5052724;28;64737;-40
2024/01/17 00:57:50;;;;;;;46.67;27.60;;;;;;;29.34;69.16;101144.34;5057277;28;69939;-39
2024/01/17 01:00:20;;;;;;;46.60;28.52;;;;;;;29.39;68.87;101155.38;5052915;28;65809;-40
2024/01/17 01:02:54;;;;;;;47.05;27.83;;;;;;;29.42;68.86;101151.44;5055043;28;70524;-40
2024/01/17 01:05:26;;;;;;;44.08;27.08;;;;;;;29.33;68.93;101142.66;5072420;28;66426;-39
2024/01/17 01:07:56;;;;;;;38.83;27.40;;;;;;;29.36;68.77;101150.38;5043047;28;70495;-39
2024/01/17 01:10:27;;;;;;;46.13;27.83;;;;;;;29.38;68.40;101153.69;5024896;28;66607;-39
2024/01/17 01:12:58;;;;;;;40.92;26.92;;;;;;;29.47;68.25;101167.03;5037506;28;70323;-39
2024/01/17 01:15:28;;;;;;;47.72;27.88;;;;;;;29.48;68.23;101166.84;5040383;28;65419;-40
2024/01/17 01:17:59;;;;;;;47.22;26.88;;;;;;;29.49;68.03;101165.78;5038850;28;70146;-39
2024/01/17 01:20:30;;;;;;;42.83;25.73;;;;;;;29.50;68.14;101169.31;5040593;28;66568;-39
2024/01/17 01:23:01;;;;;;;38.53;25.95;;;;;;;29.49;68.05;101173.91;5041083;28;70346;-39
2024/01/17 01:25:31;;;;;;;40.63;25.83;;;;;;;29.48;67.83;101160.59;5017753;28;66660;-39
2024/01/17 01:28:02;;;;;;;36.08;25.90;;;;;;;29.47;67.88;101161.63;5062377;28;71366;-41
2024/01/17 01:30:33;;;;;;;38.30;26.48;;;;;;;29.54;68.27;101170.59;5043667;28;66032;-41
2024/01/17 01:33:04;;;;;;;34.63;25.77;;;;;;;29.55;68.19;101167.66;5034770;28;69963;-39
2024/01/17 01:35:35;;;;;;;37.80;25.70;;;;;;;29.55;67.59;101164.97;5062948;28;67096;-40
2024/01/17 01:38:05;;;;;;;39.00;25.92;;;;;;;29.56;68.15;101177.47;5045667;28;68976;-39
2024/01/17 01:40:38;;;;;;;36.95;26.17;;;;;;;29.57;67.55;101183.69;5047549;28;65544;-39
2024/01/17 01:43:22;;;;;;;36.63;26.10;;;;;;;29.34;67.78;101157.84;5042574;28;69341;-39
2024/01/17 01:46:20;;;;;;;33.78;25.90;;;;;;;29.53;67.85;101177.00;5046838;28;66471;-40
2024/01/17 01:48:51;;;;;;;43.22;26.63;;;;;;;29.53;67.70;101163.50;5040261;28;70685;-39
2024/01/17 01:51:23;;;;;;;35.45;25.90;;;;;;;29.55;67.75;101170.38;5038034;28;67038;-41
2024/01/17 01:53:58;;;;;;;34.20;25.05;;;;;;;29.60;67.67;101188.69;5038357;28;70050;-40
2024/01/17 01:56:33;;;;;;;30.33;23.35;;;;;;;29.64;67.50;101179.16;5048782;28;66195;-40
2024/01/17 01:59:05;;;;;;;37.30;23.67;;;;;;;29.63;67.55;101177.50;5040222;28;70220;-39
2024/01/17 02:01:36;;;;;;;32.42;24.08;;;;;;;29.64;67.91;101175.63;5032322;28;65055;-39
2024/01/17 02:04:08;;;;;;;36.45;23.10;;;;;;;29.65;67.65;101180.84;5031862;28;70002;-40
2024/01/17 02:06:39;;;;;;;31.73;22.42;;;;;;;29.66;67.40;101182.50;5021110;28;65224;-40
2024/01/17 02:09:10;;;;;;;33.85;22.73;;;;;;;29.68;67.24;101180.41;5032681;28;70485;-40
2024/01/17 02:11:41;;;;;;;31.50;21.63;;;;;;;29.66;67.37;101160.84;5053745;28;66602;-39
2024/01/17 02:14:13;;;;;;;30.80;21.08;;;;;;;29.67;67.20;101157.13;5049186;28;71322;-40
2024/01/17 02:16:45;;;;;;;29.42;21.92;;;;;;;29.68;67.19;101157.97;5052155;28;65976;-40
2024/01/17 02:19:19;;;;;;;30.73;21.40;;;;;;;29.64;67.18;101156.69;5050249;28;69778;-39
2024/01/17 02:21:50;;;;;;;30.88;21.60;;;;;;;29.74;67.65;101168.78;5054155;28;65646;-39
2024/01/17 02:24:23;;;;;;;24.80;20.83;;;;;;;29.76;67.19;101177.53;5048476;28;69402;-39
2024/01/17 02:26:54;;;;;;;28.40;20.38;;;;;;;29.77;67.56;101168.38;5054713;28;66104;-39
2024/01/17 02:29:24;;;;;;;30.38;19.95;;;;;;;29.78;67.00;101164.63;5049256;28;69954;-41
2024/01/17 02:31:56;;;;;;;29.40;20.35;;;;;;;29.68;67.62;101147.97;5047188;28;66827;-40
2024/01/17 02:34:28;;;;;;;26.13;19.38;;;;;;;29.81;67.21;101149.84;5049575;28;69623;-39
2024/01/17 02:36:58;;;;;;;27.27;19.30;;;;;;;29.81;67.25;101150.69;5049048;28;66441;-40
2024/01/17 02:39:29;;;;;;;28.02;19.85;;;;;;;29.84;66.92;101144.88;5052490;28;70643;-39
2024/01/17 02:42:01;;;;;;;25.55;19.15;;;;;;;29.84;67.09;101146.75;5037256;28;66456;-39
2024/01/17 02:44:32;;;;;;;22.35;18.77;;;;;;;29.84;67.04;101136.75;5041466;28;70453;-39
2024/01/17 02:47:03;;;;;;;24.83;19.07;;;;;;;29.86;67.16;101143.81;5034730;28;66295;-40
2024/01/17 02:49:34;;;;;;;27.50;18.50;;;;;;;29.86;66.79;101127.59;5035374;28;69733;-40
2024/01/17 02:52:05;;;;;;;22.17;18.27;;;;;;;29.91;67.01;101131.34;5031282;28;66230;-40
2024/01/17 02:54:37;;;;;;;23.98;18.52;;;;;;;29.89;67.41;101128.00;5058844;28;71234;-39
2024/01/17 02:57:07;;;;;;;23.93;18.53;;;;;;;29.93;67.17;101131.16;5052014;28;65867;-39
2024/01/17 02:59:38;;;;;;;24.83;18.25;;;;;;;29.96;67.30;101125.31;5041028;28;70698;-39
2024/01/17 03:02:09;;;;;;;26.60;18.77;;;;;;;29.98;66.98;101126.78;5045684;28;65470;-39
2024/01/17 03:04:40;;;;;;;22.90;17.67;;;;;;;30.02;67.14;101132.59;5041941;28;69815;-39
2024/01/17 03:07:10;;;;;;;23.95;17.63;;;;;;;30.02;66.54;101119.06;5044085;28;65872;-39
2024/01/17 03:09:41;;;;;;;22.95;18.17;;;;;;;30.05;66.78;101124.06;5044101;28;70258;-40
2024/01/17 03:12:12;;;;;;;24.17;17.42;;;;;;;30.07;67.01;101119.28;5044113;28;66611;-38
2024/01/17 03:14:43;;;;;;;23.42;17.83;;;;;;;30.06;66.90;101112.19;5042457;28;70264;-39
2024/01/17 03:17:13;;;;;;;24.95;16.58;;;;;;;30.10;66.38;101116.16;5039974;28;65612;-39
2024/01/17 03:19:46;;;;;;;22.73;16.95;;;;;;;30.13;66.61;101113.03;5055264;28;70614;-39
2024/01/17 03:22:19;;;;;;;19.63;16.35;;;;;;;30.13;66.73;101115.72;5058360;28;43247;-40
2024/01/17 03:24:49;;;;;;;27.10;16.55;;;;;;;30.10;66.33;101090.97;5063126;28;69943;-41
2024/01/17 03:27:20;;;;;;;21.35;15.63;;;;;;;30.19;66.35;101101.34;5059830;28;65140;-39
2024/01/17 03:29:51;;;;;;;19.08;15.25;;;;;;;30.21;66.71;101104.69;5058342;28;70020;-39
2024/01/17 03:32:21;;;;;;;20.20;15.73;;;;;;;30.23;66.52;101099.94;5049561;28;65365;-39
2024/01/17 03:34:55;;;;;;;16.10;14.43;;;;;;;30.24;66.62;101098.06;5059015;28;70535;-39
2024/01/17 03:37:26;;;;;;;15.65;14.13;;;;;;;30.25;66.25;101084.31;5038455;28;65757;-40
2024/01/17 03:39:57;;;;;;;19.90;14.68;;;;;;;30.24;66.21;101076.41;5036476;28;69141;-39
2024/01/17 03:42:28;;;;;;;15.83;14.23;;;;;;;30.31;65.90;101087.22;5041045;28;65536;-39
2024/01/17 03:44:59;;;;;;;19.10;14.07;;;;;;;30.33;66.33;101085.13;5052102;28;69797;-39
2024/01/17 03:47:29;;;;;;;16.10;14.43;;;;;;;30.35;65.88;101081.19;5048690;28;65865;-39
2024/01/17 03:50:00;;;;;;;15.15;13.70;;;;;;;30.34;66.37;101081.38;5035466;28;69730;-39
2024/01/17 03:52:31;;;;;;;15.20;13.57;;;;;;;30.37;66.41;101068.28;5045663;28;66748;-40
2024/01/17 03:55:02;;;;;;;14.45;13.07;;;;;;;30.40;65.74;101064.31;5027849;28;70003;-40
2024/01/17 03:57:32;;;;;;;14.63;12.95;;;;;;;30.44;66.24;101065.53;5040999;28;65622;-39
2024/01/17 04:00:04;;;;;;;15.93;13.85;;;;;;;30.37;65.70;101037.66;5035550;28;70121;-40
2024/01/17 04:02:34;;;;;;;;;;;;;;;30.19;66.61;101058.06;5047693;28;66683;-39
2024/01/17 04:05:06;;;;;;;13.85;12.48;;;;;;;30.40;66.05;101039.94;5041176;28;69888;-40
2024/01/17 04:07:36;;;;;;;13.82;12.75;;;;;;;30.47;66.02;101038.03;5036041;28;67175;-39
2024/01/17 04:10:08;;;;;;;16.60;13.18;;;;;;;30.50;65.68;101038.44;5040811;28;69689;-39
2024/01/17 04:12:39;;;;;;;14.38;12.95;;;;;;;30.55;65.60;101034.28;5032935;28;66688;-39
2024/01/17 04:15:09;;;;;;;16.65;13.30;;;;;;;30.57;65.60;101038.44;5044369;28;70062;-40
2024/01/17 04:17:40;;;;;;;17.42;12.32;;;;;;;30.60;65.45;101027.16;5043986;28;66092;-39
2024/01/17 04:20:11;;;;;;;15.50;12.50;;;;;;;30.49;65.51;100998.88;5050811;28;70245;-39
2024/01/17 04:22:42;;;;;;;13.25;11.95;;;;;;;30.61;65.43;101012.56;5042568;28;66607;-39
2024/01/17 04:25:12;;;;;;;13.02;11.77;;;;;;;30.66;65.20;101012.75;5060759;28;69223;-41
2024/01/17 04:27:43;;;;;;;14.50;12.18;;;;;;;30.67;65.71;101000.91;5057068;28;66598;-39
2024/01/17 04:30:14;;;;;;;12.65;11.40;;;;;;;30.66;65.20;100993.81;5050422;28;69765;-41
2024/01/17 04:32:45;;;;;;;12.63;11.57;;;;;;;30.69;65.37;100982.53;5025711;28;65921;-41
2024/01/17 04:35:22;;;;;;;12.13;11.05;;;;;;;30.60;65.40;100967.59;5058277;28;70765;-39
2024/01/17 04:37:53;;;;;;;13.88;12.52;;;;;;;30.73;65.50;100981.06;5039571;28;66072;-39
2024/01/17 04:40:23;;;;;;;14.38;11.63;;;;;;;30.67;65.13;100963.00;5052323;28;69547;-40
2024/01/17 04:42:55;;;;;;;13.38;12.07;;;;;;;30.70;65.14;100961.69;5036213;28;66248;-40
2024/01/17 04:45:25;;;;;;;12.98;11.40;;;;;;;30.79;65.30;100959.59;5032595;28;69247;-40
2024/01/17 04:47:56;;;;;;;12.40;11.18;;;;;;;30.80;64.80;100961.28;5034246;28;66620;-40
2024/01/17 04:50:29;;;;;;;12.63;11.23;;;;;;;30.81;65.24;100952.09;5042122;28;69568;-39
2024/01/17 04:53:00;;;;;;;12.77;11.45;;;;;;;30.84;65.06;100952.50;5045108;28;65991;-40
2024/01/17 04:55:30;;;;;;;11.90;10.77;;;;;;;30.79;65.20;100932.50;5041137;28;70774;-41
2024/01/17 04:58:01;;;;;;;14.25;10.70;;;;;;;30.86;65.14;100944.16;5055040;28;66582;-41
2024/01/17 05:00:31;;;;;;;13.52;10.57;;;;;;;30.89;64.99;100932.88;5040033;28;70171;-40
2024/01/17 05:03:02;;;;;;;12.02;10.95;;;;;;;30.88;64.98;100925.81;5038764;28;66313;-40
2024/01/17 05:05:33;;;;;;;13.05;10.30;;;;;;;30.89;65.16;100922.03;5047438;28;70359;-38
2024/01/17 05:08:04;;;;;;;13.07;11.13;;;;;;;30.94;64.88;100919.50;5023699;28;66139;-40
2024/01/17 05:10:35;;;;;;;11.63;10.52;;;;;;;30.94;64.92;100914.91;5039983;28;70351;-40
2024/01/17 05:13:06;;;;;;;10.80;9.85;;;;;;;30.96;64.71;100912.00;5056026;28;65920;-39
2024/01/17 05:15:37;;;;;;;10.70;9.70;;;;;;;30.97;64.92;100910.94;5040246;28;70759;-39
2024/01/17 05:18:11;;;;;;;11.57;10.43;;;;;;;30.99;64.69;100900.72;5040594;28;66444;-41
2024/01/17 05:20:42;;;;;;;10.95;9.88;;;;;;;30.92;64.53;100878.25;5056641;28;70330;-39
2024/01/17 05:23:12;;;;;;;14.82;9.70;;;;;;;31.01;64.74;100893.19;5040022;28;66168;-40
2024/01/17 05:25:43;;;;;;;10.25;9.23;;;;;;;31.02;64.63;100889.44;5041140;28;70090;-39
2024/01/17 05:28:13;;;;;;;9.90;9.10;;;;;;;31.03;64.44;100884.84;5035202;28;66733;-39
2024/01/17 05:30:44;;;;;;;9.45;8.55;;;;;;;31.03;64.39;100874.81;5033481;28;69917;-39
2024/01/17 05:33:14;;;;;;;9.38;8.50;;;;;;;31.07;64.83;100876.06;5040863;28;66508;-41
2024/01/17 05:35:45;;;;;;;9.70;8.75;;;;;;;31.09;64.79;100867.69;5041713;28;69976;-40
2024/01/17 05:38:16;;;;;;;8.90;8.30;;;;;;;31.03;64.44;100846.91;5054411;28;65669;-39
2024/01/17 05:40:46;;;;;;;8.60;7.85;;;;;;;31.06;64.54;100841.88;5043819;28;70589;-39
2024/01/17 05:43:18;;;;;;;9.48;8.73;;;;;;;31.11;64.58;100844.75;5027436;28;66167;-39
2024/01/17 05:45:50;;;;;;;9.40;8.57;;;;;;;31.14;64.57;100844.28;5053002;28;70142;-39
2024/01/17 05:48:21;;;;;;;10.00;8.55;;;;;;;31.16;64.41;100842.19;5039895;28;66440;-39
2024/01/17 05:50:52;;;;;;;10.55;9.52;;;;;;;31.22;64.12;100828.81;5043231;28;70299;-40
2024/01/17 05:53:23;;;;;;;9.73;8.73;;;;;;;31.21;64.44;100827.16;5043250;28;66122;-40
2024/01/17 05:55:53;;;;;;;9.48;8.68;;;;;;;31.26;64.11;100830.88;5043407;28;69989;-39
2024/01/17 05:58:24;;;;;;;15.25;8.75;;;;;;;31.24;64.23;100818.59;5043280;28;65751;-39
2024/01/17 06:00:54;;;;;;;9.00;8.32;;;;;;;31.30;63.91;100820.41;5041252;28;70959;-39
2024/01/17 06:03:25;;;;;;;9.70;8.80;;;;;;;31.32;64.01;100818.28;5045013;28;66939;-39
2024/01/17 06:05:56;;;;;;;8.98;8.27;;;;;;;31.33;64.21;100809.09;5043710;28;71055;-39
2024/01/17 06:08:26;;;;;;;9.60;8.73;;;;;;;31.35;63.97;100807.81;5043049;28;65610;-39
2024/01/17 06:10:57;;;;;;;7.68;7.10;;;;;;;31.39;63.96;100808.22;5043646;28;69990;-40
2024/01/17 06:13:28;;;;;;;10.75;8.77;;;;;;;31.38;63.58;100801.16;5040972;28;65624;-39
2024/01/17 06:15:58;;;;;;;8.68;7.85;;;;;;;31.35;64.04;100788.03;5033669;28;71014;-40
2024/01/17 06:18:29;;;;;;;8.98;7.75;;;;;;;31.43;63.76;100798.59;5043592;28;65826;-39
2024/01/17 06:21:00;;;;;;;8.30;7.70;;;;;;;31.46;63.73;100787.31;5041513;28;70765;-39
2024/01/17 06:23:30;;;;;;;8.65;7.85;;;;;;;31.46;63.47;100779.16;5043564;28;66129;-48
2024/01/17 06:26:02;;;;;;;8.60;7.90;;;;;;;31.39;63.45;100767.56;5057547;28;70152;-40
2024/01/17 06:28:35;;;;;;;7.75;7.03;;;;;;;31.48;63.75;100765.38;5054387;28;65575;-40
2024/01/17 06:31:06;;;;;;;8.10;7.38;;;;;;;31.27;63.51;100724.09;5042529;28;70811;-39
2024/01/17 06:33:39;;;;;;;9.10;8.18;;;;;;;31.44;63.47;100748.75;5040002;28;66140;-39
2024/01/17 06:36:10;;;;;;;7.38;6.88;;;;;;;31.55;63.61;100760.72;5046071;28;70454;-43
2024/01/17 06:38:40;;;;;;;8.18;7.57;;;;;;;31.55;63.75;100750.69;5078617;28;66334;-39
2024/01/17 06:41:11;;;;;;;7.13;6.57;;;;;;;31.54;63.31;100740.91;5060875;27;69333;-39
2024/01/17 06:43:42;;;;;;;6.90;6.27;;;;;;;31.57;63.27;100740.44;5049976;28;65513;-40
2024/01/17 06:46:13;;;;;;;8.00;6.57;;;;;;;31.65;63.49;100741.16;5045193;28;69413;-39
2024/01/17 06:48:44;;;;;;;7.70;7.07;;;;;;;31.73;63.13;100749.00;5047434;28;66148;-40
2024/01/17 06:51:17;;;;;;;6.75;6.25;;;;;;;31.76;63.26;100737.69;5054625;28;71255;-39
2024/01/17 06:53:48;;;;;;;6.43;5.97;;;;;;;31.78;63.01;100741.00;5045467;28;65702;-39
2024/01/17 06:56:19;;;;;;;9.38;7.30;;;;;;;31.77;63.06;100734.75;5045318;28;69747;-40
2024/01/17 06:58:49;;;;;;;6.93;6.45;;;;;;;31.83;63.35;100728.41;5037996;28;66388;-39
2024/01/17 07:01:20;;;;;;;7.18;6.57;;;;;;;31.86;63.07;100732.53;5042863;28;70338;-39
2024/01/17 07:03:51;;;;;;;7.13;6.50;;;;;;;31.88;63.06;100730.44;5042749;28;65563;-39
2024/01/17 07:06:21;;;;;;;7.10;6.60;;;;;;;31.92;62.85;100720.78;5043581;28;69472;-40
2024/01/17 07:08:52;;;;;;;7.32;6.75;;;;;;;31.95;62.90;100724.94;5053471;28;65728;-40
2024/01/17 07:11:23;;;;;;;7.35;6.43;;;;;;;31.99;62.91;100721.53;5059163;28;69159;-40
2024/01/17 07:13:53;;;;;;;6.57;6.18;;;;;;;31.91;62.82;100691.16;5061952;28;65616;-39
2024/01/17 07:16:24;;;;;;;9.23;6.82;;;;;;;32.01;62.60;100708.56;5062170;28;70383;-39
2024/01/17 07:18:55;;;;;;;6.47;5.97;;;;;;;32.06;62.94;100710.56;5062315;28;65696;-39
2024/01/17 07:21:26;;;;;;;6.50;6.00;;;;;;;32.09;62.56;100709.28;5054349;28;70418;-39
2024/01/17 07:23:57;;;;;;;6.32;5.82;;;;;;;32.11;62.74;100696.31;5059533;28;65265;-40
2024/01/17 07:26:28;;;;;;;7.18;6.57;;;;;;;32.02;62.51;100676.84;5061307;28;69596;-39
2024/01/17 07:28:58;;;;;;;6.25;5.75;;;;;;;32.20;62.59;100700.34;5063518;28;66236;-39
2024/01/17 07:31:29;;;;;;;7.45;6.63;;;;;;;32.22;62.40;100693.59;5062744;28;70193;-41
2024/01/17 07:33:59;;;;;;;6.80;6.30;;;;;;;32.27;62.45;100692.91;5049007;28;66734;-40
2024/01/17 07:36:30;;;;;;;7.20;6.65;;;;;;;32.30;62.21;100695.16;5027727;28;71598;-40
2024/01/17 07:39:00;;;;;;;6.93;5.63;;;;;;;32.33;62.23;100689.25;5038691;28;65999;-40
2024/01/17 07:41:31;;;;;;;5.63;5.30;;;;;;;32.38;62.43;100697.53;5041846;28;70310;-39
2024/01/17 07:44:03;;;;;;;6.18;5.78;;;;;;;32.35;61.96;100681.72;5042889;28;66486;-40
2024/01/17 07:46:33;;;;;;;6.05;5.60;;;;;;;32.44;62.12;100690.34;5062661;28;69987;-39
2024/01/17 07:49:04;;;;;;;6.20;5.80;;;;;;;32.49;62.03;100694.03;5059414;28;66697;-39
2024/01/17 07:51:35;;;;;;;6.15;5.75;;;;;;;32.53;61.98;100704.41;5062421;28;70013;-40
2024/01/17 07:54:05;;;;;;;6.93;6.32;;;;;;;32.58;61.83;100693.69;5048683;28;65816;-40
2024/01/17 07:56:36;;;;;;;5.72;5.22;;;;;;;32.57;62.01;100678.41;5077356;28;70000;-39
2024/01/17 07:59:07;;;;;;;6.55;5.95;;;;;;;32.65;61.92;100691.66;5042678;28;66544;-38
2024/01/17 08:01:37;;;;;;;7.10;6.20;;;;;;;32.66;61.80;100686.00;5042955;28;69755;-39
2024/01/17 08:04:08;;;;;;;6.20;5.45;;;;;;;32.72;61.53;100697.78;5038065;28;66407;-39
2024/01/17 08:06:39;;;;;;;6.20;5.57;;;;;;;32.74;61.58;100690.25;5041965;28;69451;-41
2024/01/17 08:09:26;;;;;;;6.43;5.82;;;;;;;32.80;61.52;100694.72;5057212;28;66107;-39
2024/01/17 08:11:59;;;;;;;6.43;5.93;;;;;;;32.15;61.53;100591.66;5045542;28;69706;-39
2024/01/17 08:14:30;;;;;;;5.88;5.38;;;;;;;32.82;60.88;100692.59;5046406;28;66503;-40
2024/01/17 08:17:01;;;;;;;5.90;5.43;;;;;;;32.89;61.30;100698.72;5052287;28;70346;-40
2024/01/17 08:19:31;;;;;;;7.10;6.33;;;;;;;32.90;61.28;100697.66;5055086;28;66113;-40
2024/01/17 08:22:04;;;;;;;6.32;5.82;;;;;;;32.93;60.99;100699.06;5066783;28;69608;-39
2024/01/17 08:24:34;;;;;;;;;;;;;;;32.79;60.00;100697.66;5056656;28;66196;-41
2024/01/17 08:27:04;;;;;;;5.72;5.15;;;;;;;32.98;60.92;100698.34;5042902;28;69872;-39
2024/01/17 08:29:35;;;;;;;5.85;5.20;;;;;;;32.91;60.69;100691.16;5035392;28;66316;-39
2024/01/17 08:32:06;;;;;;;5.63;5.10;;;;;;;33.06;60.53;100698.84;5050441;28;70479;-39
2024/01/17 08:34:36;;;;;;;5.40;5.00;;;;;;;32.98;60.60;100690.19;5054888;28;65832;-40
2024/01/17 08:37:07;;;;;;;5.70;5.30;;;;;;;33.12;60.31;100710.63;5052919;28;70561;-40
2024/01/17 08:39:37;;;;;;;5.78;5.28;;;;;;;33.16;60.51;100714.53;5057879;28;66226;-41
2024/01/17 08:42:08;;;;;;;5.85;5.25;;;;;;;33.16;60.58;100709.09;5043763;28;68851;-40
2024/01/17 08:44:42;;;;;;;5.63;4.82;;;;;;;33.09;59.92;100709.22;5082956;27;67829;-40
2024/01/17 08:47:13;;;;;;;7.65;5.65;;;;;;;33.20;60.21;100709.44;5063442;28;70341;-40
2024/01/17 08:49:44;;;;;;;5.38;4.97;;;;;;;33.22;60.28;100719.00;5042567;28;66400;-40
2024/01/17 08:52:14;;;;;;;6.00;5.50;;;;;;;33.15;60.07;100696.56;5045498;28;70236;-40
2024/01/17 08:54:45;;;;;;;5.63;5.22;;;;;;;33.26;60.06;100708.47;5075830;28;66643;-40
2024/01/17 08:57:15;;;;;;;7.25;5.40;;;;;;;33.23;59.95;100709.78;5047062;28;70409;-42
2024/01/17 08:59:46;;;;;;;5.70;5.30;;;;;;;33.23;60.13;100714.41;5063177;28;67294;-40
2024/01/17 09:02:17;;;;;;;6.07;5.57;;;;;;;33.31;60.27;100723.00;5041251;28;70275;-39
2024/01/17 09:04:47;;;;;;;5.75;5.03;;;;;;;33.30;59.73;100729.50;5042533;28;65829;-40
2024/01/17 09:07:18;;;;;;;5.93;5.20;;;;;;;33.33;59.92;100731.75;5031884;28;69715;-39
2024/01/17 09:09:51;;;;;;;6.25;5.65;;;;;;;33.35;59.87;100737.78;5054734;28;65968;-40
2024/01/17 09:12:23;;;;;;;5.55;5.13;;;;;;;33.36;60.02;100741.31;5048070;28;70419;-40
2024/01/17 09:14:54;;;;;;;7.07;5.68;;;;;;;33.35;60.00;100745.94;5061884;28;66723;-40
2024/01/17 09:17:25;;;;;;;7.90;6.82;;;;;;;33.19;59.63;100757.56;5053471;28;68997;-39
2024/01/17 09:19:56;;;;;;;14.65;8.10;;;;;;;33.09;60.44;100751.88;5054471;28;66469;-40
2024/01/17 09:22:26;;;;;;;25.27;9.10;;;;;;;32.97;61.23;100759.19;5061701;28;69676;-40
2024/01/17 09:24:59;;;;;;;12.43;8.70;;;;;;;32.84;61.69;100755.66;5046265;28;65967;-40
2024/01/17 09:27:30;;;;;;;15.25;9.18;;;;;;;32.89;61.76;100769.34;5060256;28;70447;-40
2024/01/17 09:30:00;;;;;;;11.48;9.13;;;;;;;32.96;62.07;100769.25;5060464;28;65778;-39
2024/01/17 09:32:31;;;;;;;10.93;8.25;;;;;;;33.05;61.66;100769.75;5059851;28;69287;-41
2024/01/17 09:35:02;;;;;;;11.57;8.30;;;;;;;33.11;61.31;100775.03;5058797;28;66698;-40
2024/01/17 09:37:35;;;;;;;10.82;8.55;;;;;;;33.17;61.33;100775.97;5060668;28;70151;-41
2024/01/17 09:40:08;;;;;;;11.10;8.40;;;;;;;33.23;60.99;100775.03;5041541;28;65723;-40
2024/01/17 09:42:42;;;;;;;12.55;8.32;;;;;;;33.26;61.27;100784.59;5073477;28;70710;-39
2024/01/17 09:45:17;;;;;;;10.98;8.07;;;;;;;32.96;61.17;100730.34;5049143;28;66332;-41
2024/01/17 09:47:51;;;;;;;11.15;7.32;;;;;;;33.25;61.14;100778.34;5045106;28;69611;-39
2024/01/17 09:50:22;;;;;;;12.68;8.35;;;;;;;33.31;61.02;100788.25;5035352;28;66617;-39
2024/01/17 09:52:56;;;;;;;9.67;8.00;;;;;;;33.33;61.25;100790.75;5043034;28;70306;-40
2024/01/17 09:55:28;;;;;;;15.80;8.98;;;;;;;33.35;61.24;100794.06;5043278;28;65990;-40
2024/01/17 09:57:59;;;;;;;12.52;8.23;;;;;;;33.35;61.19;100792.16;5034152;28;70370;-41
2024/01/17 10:00:31;;;;;;;14.38;8.43;;;;;;;33.36;61.60;100801.94;5040435;28;66707;-40
2024/01/17 10:03:04;;;;;;;8.85;7.85;;;;;;;33.24;61.58;100787.56;5044769;28;70448;-40
2024/01/17 10:05:36;;;;;;;16.10;8.20;;;;;;;33.39;61.56;100800.66;5045797;28;66391;-41
2024/01/17 10:08:07;;;;;;;9.63;7.75;;;;;;;33.39;61.31;100800.66;5046377;28;69631;-40
2024/01/17 10:10:38;;;;;;;8.57;7.87;;;;;;;33.36;61.67;100807.38;5043115;28;67306;-39
2024/01/17 10:13:08;;;;;;;10.00;8.35;;;;;;;33.40;61.57;100812.34;5041346;28;70066;-40
2024/01/17 10:15:42;;;;;;;14.05;8.30;;;;;;;33.40;61.74;100812.34;5034602;28;64895;-40
2024/01/17 10:18:13;;;;;;;15.25;7.78;;;;;;;33.36;61.32;100807.38;5031890;28;70140;-41
2024/01/17 10:20:44;;;;;;;10.35;8.07;;;;;;;33.35;61.92;100810.38;5031682;28;65987;-43
2024/01/17 10:23:15;;;;;;;18.80;9.77;;;;;;;33.14;62.31;100809.06;5051793;28;70783;-38
2024/01/17 10:25:45;;;;;;;13.45;8.65;;;;;;;33.10;62.95;100821.50;5046265;28;66394;-38
2024/01/17 10:28:16;;;;;;;14.43;9.00;;;;;;;33.04;63.45;100826.00;5059169;28;69570;-38
2024/01/17 10:30:47;;;;;;;18.90;8.38;;;;;;;32.96;63.37;100831.75;5035583;28;65504;-37
2024/01/17 10:33:18;;;;;;;19.65;8.73;;;;;;;32.90;63.54;100830.81;5038538;28;69196;-38
2024/01/17 10:35:50;;;;;;;17.17;7.63;;;;;;;32.85;64.11;100833.38;5070386;27;66523;-37
2024/01/17 10:38:21;;;;;;;15.93;8.00;;;;;;;32.84;63.28;100826.28;5041918;28;70221;-38
2024/01/17 10:41:13;;;;;;;19.63;9.32;;;;;;;32.74;64.67;100836.91;5026587;28;66498;-39
2024/01/17 10:43:57;;;;;;;20.75;8.77;;;;;;;32.38;64.70;100784.41;5042750;28;69985;-38
2024/01/17 10:46:30;;;;;;;16.75;7.45;;;;;;;32.74;64.51;100839.63;5052328;28;66083;-39
2024/01/17 10:49:01;;;;;;;11.00;7.72;;;;;;;32.58;64.89;100826.72;5047050;28;68845;-38
2024/01/17 10:51:35;;;;;;;18.17;8.03;;;;;;;32.67;65.32;100834.28;5048123;28;66785;-40
2024/01/17 10:54:08;;;;;;;14.73;7.68;;;;;;;32.67;65.05;100836.19;5042660;28;69276;-38
2024/01/17 10:56:44;;;;;;;15.10;8.40;;;;;;;32.65;65.47;100839.16;5043381;28;66204;-39
2024/01/17 10:59:20;;;;;;;18.75;7.45;;;;;;;32.63;65.75;100843.16;5049133;28;70277;-40
2024/01/17 11:01:51;;;;;;;15.35;7.47;;;;;;;32.60;65.65;100846.34;5057663;28;65847;-40
2024/01/17 11:04:29;;;;;;;18.70;7.38;;;;;;;32.57;65.78;100858.50;5040007;28;70612;-39
2024/01/17 11:07:00;;;;;;;16.80;7.75;;;;;;;32.55;65.97;100857.06;5056256;28;66038;-38
2024/01/17 11:09:31;;;;;;;;;;;;;;;32.37;66.48;100856.03;5050698;28;69146;-39
2024/01/17 11:12:04;;;;;;;14.55;7.63;;;;;;;32.53;66.11;100861.91;5059134;28;66426;-40
2024/01/17 11:14:35;;;;;;;10.02;6.63;;;;;;;32.44;66.33;100856.78;5045058;28;71101;-39
2024/01/17 11:17:07;;;;;;;12.90;7.35;;;;;;;32.37;66.29;100863.34;5040942;28;65278;-40
2024/01/17 11:19:44;;;;;;;8.75;6.30;;;;;;;32.47;66.58;100878.06;5056340;28;69999;-39
2024/01/17 11:22:16;;;;;;;9.07;6.40;;;;;;;32.46;66.76;100883.72;5053308;28;65181;-40
2024/01/17 11:25:16;;;;;;;14.95;5.90;;;;;;;32.06;67.08;100819.09;5045226;28;69961;-40
2024/01/17 11:27:55;;;;;;;18.08;7.93;;;;;;;32.48;67.42;100887.88;5042895;28;65976;-39
2024/01/17 11:30:41;;;;;;;7.90;7.10;;;;;;;32.36;67.76;100876.09;5039958;28;70671;-39
2024/01/17 11:33:13;;;;;;;13.75;7.32;;;;;;;32.39;67.73;100882.94;5038722;28;66649;-39
2024/01/17 11:35:46;;;;;;;14.73;7.18;;;;;;;32.35;67.52;100876.34;5042107;28;70180;-39
2024/01/17 11:38:23;;;;;;;10.70;6.93;;;;;;;32.43;67.89;100898.56;5042210;28;66964;-38